• Join FlightAware (Why Join?)
  • Login
  • US Flag 
11:22AM EDT


 

Airport Tracker/Info


-or-


 

Live Flight TrackerFlight Track Log ✈ EJA116 ✈ 28-Jul-2013 ✈ KIND - KCMH

Flight Track Log - Related Links

Times and Time Zones

All times are in EDT time to prevent confusion due to time zone crossing. See the EJA116 flight status page for this flight to view local times or setup timezone preferences in your user account.

Time Position Orientation Groundspeed Altitude Reporting Facility
EDT Latitude Longitude Course Direction KTS MPH feet Rate Location/Type
06:02PM 39.7000 -86.3000 201° Southwest 141 162 1,400  Level Indianapolis TRACON
06:03PM 39.6333 -86.3333 201° Southwest 226 260 6,400 3,300 Climbing Indianapolis TRACON
06:05PM 39.5922 -86.2578 125° Southeast 270 311 10,900 2,340 Climbing Indianapolis Center
06:06PM 39.6239 -86.1458 70° East 334 384 12,300 1,440 Climbing Indianapolis Center
06:07PM 39.6628 -86.0231 68° East 371 427 13,900 1,260 Climbing Indianapolis Center
06:08PM 39.7150 -85.8678 66° East 396 456 15,000 480 Climbing Indianapolis Center
06:09PM 39.7589 -85.7297 67° East 414 476 15,000  Level Indianapolis Center
06:10PM 39.8042 -85.5903 67° East 421 484 15,000  Level Indianapolis Center
06:11PM 39.8486 -85.4525 67° East 416 479 15,000  Level Indianapolis Center
06:12PM 39.8933 -85.3142 67° East 417 480 15,000  Level Indianapolis Center
06:13PM 39.9367 -85.1764 68° East 415 478 15,000  Level Indianapolis Center
06:14PM 39.9908 -85.0056 67° East 424 488 15,000  Level Indianapolis Center
06:15PM 40.0378 -84.8547 68° East 426 490 15,000  Level Indianapolis Center
06:16PM 40.0825 -84.7103 68° East 427 491 15,000  Level Indianapolis Center
06:18PM 40.1744 -84.4186 68° East 430 495 15,000  Level Indianapolis Center
06:19PM 40.2194 -84.2722 68° East 429 494 15,000  Level Indianapolis Center
06:20PM 40.2633 -84.1247 69° East 430 495 15,000  Level Indianapolis Center
06:21PM 40.3031 -83.9733 71° East 434 499 15,000  Level Indianapolis Center
06:22PM 40.3331 -83.8169 76° East 436 502 15,000 -540 Level Indianapolis Center
06:23PM 40.3686 -83.6364 75° East 432 497 13,900 -1,500 Descending Indianapolis Center
06:24PM 40.3972 -83.4908 75° East 410 472 11,900 -1,560 Descending Indianapolis Center
06:25PM 40.3706 -83.3653 106° East 384 442 10,700 -960 Descending Indianapolis Center
06:26PM 40.3061 -83.2658 130° Southeast 357 411 10,000 -360 Descending Indianapolis Center
06:27PM 40.2428 -83.1675 130° Southeast 350 403 10,000 -600 Level Indianapolis Center
06:28PM 40.1814 -83.0767 131° Southeast 334 384 8,800 -1,860 Descending Indianapolis Center
06:30PM 40.1292 -82.9997 132° Southeast 292 336 6,200 -1,380 Descending Indianapolis Center
06:31PM 40.1042 -82.9050 109° East 284 327 6,000 -420 Descending Indianapolis Center
06:32PM 40.1006 -82.8019 93° East 282 325 5,400 -1,440 Descending Indianapolis Center
06:33PM 40.0647 -82.7239 121° Southeast 260 299 3,100 -1,200 Descending Indianapolis Center
06:34PM 40.0147 -82.7478 200° South 212 244 3,000 -480 Descending Indianapolis Center
06:35PM 39.9997 -82.7961 248° West 170 196 2,200 -780 Descending Indianapolis Center
06:36PM 39.9997 -82.8467 270° West 122 140 1,400 -540 Descending Indianapolis Center
06:37PM 40.0000 -82.8911 270° West 134 154 1,200 -240 Descending Indianapolis Center